createdAt,value
2019-05-02T00:00:31.677Z,10.07
2019-05-02T00:01:35.854Z,10.07
2019-05-02T00:02:40.105Z,10.07
2019-05-02T00:03:44.382Z,10.07
2019-05-02T00:04:51.047Z,10.08
2019-05-02T00:05:52.872Z,10.06
2019-05-02T00:06:57.189Z,10.05
2019-05-02T00:08:01.385Z,10.06
2019-05-02T00:09:09.147Z,10.06
2019-05-02T00:10:09.836Z,10.06
2019-05-02T00:11:14.126Z,10.05
2019-05-02T00:12:18.370Z,10.05
2019-05-02T00:13:22.645Z,10.05
2019-05-02T00:14:26.984Z,10.04
2019-05-02T00:15:33.031Z,10.03
2019-05-02T00:16:35.434Z,10.03
2019-05-02T00:17:39.658Z,10.04
2019-05-02T00:18:43.868Z,10.05
2019-05-02T00:19:49.934Z,10.04
2019-05-02T00:20:52.478Z,10.03
2019-05-02T00:21:56.706Z,10.03
2019-05-02T00:23:00.942Z,10.03
2019-05-02T00:24:05.203Z,10.03
2019-05-02T00:25:11.071Z,10.04
2019-05-02T00:26:13.701Z,10.04
2019-05-02T00:27:17.898Z,10.04
2019-05-02T00:28:22.199Z,10.04
2019-05-02T00:29:26.427Z,10.04
2019-05-02T00:30:34.648Z,10.04
2019-05-02T00:31:34.911Z,10.02
2019-05-02T00:32:39.209Z,10.01
2019-05-02T00:33:43.403Z,9.99
2019-05-02T00:34:47.639Z,9.99
2019-05-02T00:35:51.899Z,9.99
2019-05-02T00:36:56.236Z,10.00
2019-05-02T00:38:02.413Z,9.99
2019-05-02T00:39:09.496Z,10.00
2019-05-02T00:40:08.962Z,9.99
2019-05-02T00:41:13.269Z,9.99
2019-05-02T00:42:21.986Z,9.99
2019-05-02T00:43:21.757Z,9.99
2019-05-02T00:44:26.072Z,10.00
2019-05-02T00:45:30.302Z,10.01
2019-05-02T00:46:34.955Z,10.03
2019-05-02T00:47:42.368Z,10.04
2019-05-02T00:48:43.201Z,10.05
2019-05-02T00:49:47.380Z,10.05
2019-05-02T00:50:52.549Z,10.05
2019-05-02T00:51:56.633Z,10.04
2019-05-02T00:53:00.115Z,10.04
2019-05-02T00:54:04.334Z,10.05
2019-05-02T00:55:08.593Z,10.03
2019-05-02T00:56:12.816Z,10.02
2019-05-02T00:57:19.999Z,10.00
2019-05-02T00:58:21.274Z,10.00
2019-05-02T00:59:25.570Z,10.00
2019-05-02T01:00:29.912Z,9.98
2019-05-02T01:01:34.188Z,9.94
2019-05-02T01:02:40.588Z,9.93
2019-05-02T01:03:42.675Z,9.92
2019-05-02T01:04:46.889Z,9.92
2019-05-02T01:05:51.157Z,9.92
2019-05-02T01:06:55.464Z,9.91
2019-05-02T01:08:01.028Z,9.92
2019-05-02T01:09:05.892Z,9.93
2019-05-02T01:10:08.231Z,9.94
2019-05-02T01:11:12.399Z,9.92
2019-05-02T01:12:26.090Z,9.91
2019-05-02T01:13:21.006Z,9.91
2019-05-02T01:14:27.210Z,9.91
2019-05-02T01:15:29.555Z,9.91
2019-05-02T01:16:33.826Z,9.89
2019-05-02T01:17:38.330Z,9.89
2019-05-02T01:18:42.590Z,9.90
2019-05-02T01:19:47.273Z,9.89
2019-05-02T01:20:50.904Z,9.90
2019-05-02T01:21:55.139Z,9.90
2019-05-02T01:22:59.478Z,9.91
2019-05-02T01:24:04.400Z,9.89
2019-05-02T01:25:14.979Z,9.90
2019-05-02T01:26:12.282Z,9.91
2019-05-02T01:27:16.483Z,9.91
2019-05-02T01:28:20.804Z,9.89
2019-05-02T01:29:29.885Z,9.88
2019-05-02T01:30:29.361Z,9.87
2019-05-02T01:31:33.689Z,9.88
2019-05-02T01:32:37.961Z,9.88
2019-05-02T01:33:43.560Z,9.88
2019-05-02T01:34:49.103Z,9.90
2019-05-02T01:35:50.770Z,9.91
2019-05-02T01:36:54.926Z,9.93
2019-05-02T01:37:59.269Z,9.95
2019-05-02T01:39:07.615Z,9.96
2019-05-02T01:40:07.706Z,9.96
2019-05-02T01:41:12.059Z,9.97
2019-05-02T01:42:16.342Z,9.97
2019-05-02T01:43:23.966Z,9.97
2019-05-02T01:44:24.964Z,9.98
2019-05-02T01:45:29.135Z,9.99
2019-05-02T01:46:33.392Z,9.99
2019-05-02T01:47:37.661Z,9.99
2019-05-02T01:48:45.626Z,10.00
2019-05-02T01:49:51.973Z,9.98
2019-05-02T01:50:52.620Z,9.97
2019-05-02T01:51:56.754Z,9.96
2019-05-02T01:53:01.106Z,9.96
2019-05-02T01:54:10.060Z,9.97
2019-05-02T01:55:09.654Z,9.98
2019-05-02T01:56:13.919Z,9.97
2019-05-02T01:57:18.211Z,9.96
2019-05-02T01:58:22.867Z,9.95
2019-05-02T01:59:29.109Z,9.95
2019-05-02T02:00:31.053Z,9.94
2019-05-02T02:01:35.291Z,9.94
2019-05-02T02:02:39.512Z,9.95
2019-05-02T02:03:45.582Z,9.96
2019-05-02T02:04:52.204Z,9.97
2019-05-02T02:05:52.395Z,9.97
2019-05-02T02:06:56.609Z,9.95
2019-05-02T02:08:00.783Z,9.94
2019-05-02T02:09:08.273Z,9.93
2019-05-02T02:10:09.401Z,9.93
2019-05-02T02:11:13.599Z,9.93
2019-05-02T02:12:17.920Z,9.93
2019-05-02T02:13:22.222Z,9.93
2019-05-02T02:14:26.397Z,9.94
2019-05-02T02:15:30.743Z,9.95
2019-05-02T02:16:35.378Z,9.95
2019-05-02T02:17:39.164Z,9.94
2019-05-02T02:18:43.380Z,9.93
2019-05-02T02:19:47.742Z,9.92
2019-05-02T02:20:51.927Z,9.91
2019-05-02T02:21:57.498Z,9.91
2019-05-02T02:23:00.452Z,9.91
2019-05-02T02:24:04.674Z,9.91
2019-05-02T02:25:08.880Z,9.90
2019-05-02T02:26:13.917Z,9.91
2019-05-02T02:27:19.955Z,9.92
2019-05-02T02:28:21.794Z,9.94
2019-05-02T02:29:26.023Z,9.95
2019-05-02T02:30:30.349Z,9.96
2019-05-02T02:31:39.556Z,9.97
2019-05-02T02:32:38.824Z,9.98
2019-05-02T02:33:47.954Z,10.00
2019-05-02T02:34:47.446Z,10.00
2019-05-02T02:35:52.198Z,10.00
2019-05-02T02:36:55.858Z,10.00
2019-05-02T02:38:00.207Z,10.00
2019-05-02T02:39:07.074Z,10.00
2019-05-02T02:40:08.656Z,9.99
2019-05-02T02:41:15.045Z,9.98
2019-05-02T02:42:17.198Z,9.98
2019-05-02T02:43:33.437Z,9.98
2019-05-02T02:44:25.837Z,9.98
2019-05-02T02:45:30.035Z,9.98
2019-05-02T02:46:38.093Z,9.99
2019-05-02T02:47:38.583Z,9.99
2019-05-02T02:48:43.037Z,9.99
2019-05-02T02:49:47.149Z,10.00
2019-05-02T02:50:51.431Z,10.01
2019-05-02T02:51:57.958Z,10.02
2019-05-02T02:52:59.864Z,10.02
2019-05-02T02:54:05.803Z,10.02
2019-05-02T02:55:08.381Z,10.02
2019-05-02T02:56:12.637Z,10.01
2019-05-02T02:57:25.719Z,10.02
2019-05-02T02:58:21.109Z,10.02
2019-05-02T02:59:26.113Z,10.01
2019-05-02T03:00:29.594Z,10.01
2019-05-02T03:01:33.876Z,10.01
2019-05-02T03:02:47.832Z,10.02
2019-05-02T03:03:42.349Z,10.02
2019-05-02T03:04:46.610Z,10.02
2019-05-02T03:05:50.882Z,10.02
2019-05-02T03:06:55.141Z,10.02
2019-05-02T03:08:05.340Z,10.01
2019-05-02T03:09:03.714Z,10.01
2019-05-02T03:10:08.462Z,10.00
2019-05-02T03:11:22.310Z,9.99
2019-05-02T03:12:16.496Z,10.00
2019-05-02T03:13:21.795Z,10.01
2019-05-02T03:14:24.965Z,10.02
2019-05-02T03:15:29.796Z,10.03
2019-05-02T03:16:33.556Z,10.03
2019-05-02T03:17:37.807Z,10.02
2019-05-02T03:18:43.285Z,10.01
2019-05-02T03:19:46.287Z,10.01
2019-05-02T03:20:50.658Z,10.02
2019-05-02T03:22:01.133Z,10.02
2019-05-02T03:22:59.073Z,10.01
2019-05-02T03:24:05.913Z,10.00
2019-05-02T03:25:07.598Z,10.01
2019-05-02T03:26:15.006Z,10.01
2019-05-02T03:27:16.114Z,10.02
2019-05-02T03:28:21.078Z,10.03
2019-05-02T03:29:24.632Z,10.04
2019-05-02T03:30:35.895Z,10.04
2019-05-02T03:31:33.199Z,10.05
2019-05-02T03:32:37.397Z,10.05
2019-05-02T03:33:53.779Z,10.04
2019-05-02T03:34:51.677Z,10.05
2019-05-02T03:35:50.176Z,10.04
2019-05-02T03:36:54.484Z,10.03
2019-05-02T03:37:58.761Z,10.03
2019-05-02T03:39:13.872Z,10.04
2019-05-02T03:40:07.207Z,10.04
2019-05-02T03:41:13.310Z,10.05
2019-05-02T03:42:15.739Z,10.05
2019-05-02T03:43:25.686Z,10.05
2019-05-02T03:44:25.798Z,10.05
2019-05-02T03:45:32.111Z,10.05
2019-05-02T03:46:32.696Z,10.04
2019-05-02T03:47:43.538Z,10.03
2019-05-02T03:48:41.194Z,10.02
2019-05-02T03:49:48.543Z,10.01
2019-05-02T03:50:49.818Z,10.01
2019-05-02T03:51:56.123Z,10.02
2019-05-02T03:52:58.402Z,10.02
2019-05-02T03:54:07.631Z,10.01
2019-05-02T03:55:06.920Z,10.01
2019-05-02T03:56:13.728Z,9.99
2019-05-02T03:57:15.412Z,9.99
2019-05-02T03:58:19.868Z,9.97
2019-05-02T03:59:37.483Z,9.95
2019-05-02T04:00:28.263Z,9.95
2019-05-02T04:01:34.690Z,9.96
2019-05-02T04:02:36.856Z,9.99
2019-05-02T04:03:43.694Z,10.01
2019-05-02T04:04:45.270Z,10.01
2019-05-02T04:05:49.528Z,10.00
2019-05-02T04:06:54.874Z,9.99
2019-05-02T04:07:58.109Z,9.99
2019-05-02T04:09:02.271Z,9.99
2019-05-02T04:10:06.558Z,9.99
2019-05-02T04:11:10.849Z,9.99
2019-05-02T04:12:21.282Z,9.99
2019-05-02T04:13:19.339Z,10.00
2019-05-02T04:14:37.205Z,10.01
2019-05-02T04:15:28.814Z,10.01
2019-05-02T04:16:32.203Z,10.02
2019-05-02T04:17:37.420Z,10.02
2019-05-02T04:18:40.684Z,10.04
2019-05-02T04:19:45.038Z,10.05
2019-05-02T04:20:50.084Z,10.06
2019-05-02T04:21:54.942Z,10.07
2019-05-02T04:22:57.798Z,10.08
2019-05-02T04:24:10.726Z,10.08
2019-05-02T04:25:06.576Z,10.09
2019-05-02T04:26:12.732Z,10.10
2019-05-02T04:27:14.918Z,10.10
2019-05-02T04:28:19.136Z,10.11
2019-05-02T04:29:28.410Z,10.11
2019-05-02T04:30:27.618Z,10.12
2019-05-02T04:31:33.604Z,10.11
2019-05-02T04:32:36.303Z,10.11
2019-05-02T04:33:40.506Z,10.11
2019-05-02T04:34:49.010Z,10.11
2019-05-02T04:35:49.020Z,10.11
2019-05-02T04:37:01.075Z,10.11
2019-05-02T04:38:00.964Z,10.12
2019-05-02T04:39:05.625Z,10.13
2019-05-02T04:40:09.073Z,10.14
2019-05-02T04:41:10.369Z,10.15
2019-05-02T04:42:19.676Z,10.17
2019-05-02T04:43:18.929Z,10.17
2019-05-02T04:44:32.237Z,10.18
2019-05-02T04:45:38.370Z,10.18
2019-05-02T04:46:31.659Z,10.16
2019-05-02T04:47:39.495Z,10.17
2019-05-02T04:48:48.116Z,10.16
2019-05-02T04:49:44.669Z,10.17
2019-05-02T04:50:51.707Z,10.17
2019-05-02T04:52:01.553Z,10.18
2019-05-02T04:52:59.287Z,10.19
2019-05-02T04:54:01.556Z,10.20
2019-05-02T04:55:14.406Z,10.20
2019-05-02T04:56:10.899Z,10.21
2019-05-02T04:57:14.410Z,10.22
2019-05-02T04:58:27.533Z,10.23
2019-05-02T04:59:23.191Z,10.25
2019-05-02T05:00:28.604Z,10.26
2019-05-02T05:01:42.211Z,10.27
2019-05-02T05:02:37.303Z,10.28
2019-05-02T05:03:40.063Z,10.30
2019-05-02T05:04:48.702Z,10.32
2019-05-02T05:05:48.559Z,10.33
2019-05-02T05:06:58.170Z,10.34
2019-05-02T05:07:58.649Z,10.35
2019-05-02T05:09:04.141Z,10.35
2019-05-02T05:10:08.223Z,10.36
2019-05-02T05:11:13.886Z,10.37
2019-05-02T05:12:14.118Z,10.37
2019-05-02T05:13:22.784Z,10.38
2019-05-02T05:14:22.700Z,10.40
2019-05-02T05:15:37.050Z,10.41
2019-05-02T05:16:31.284Z,10.42
2019-05-02T05:17:37.441Z,10.43
2019-05-02T05:18:44.036Z,10.44
2019-05-02T05:19:44.021Z,10.44
2019-05-02T05:20:52.842Z,10.45
2019-05-02T05:21:58.848Z,10.46
2019-05-02T05:22:58.133Z,10.46
2019-05-02T05:24:01.717Z,10.47
2019-05-02T05:25:07.482Z,10.48
2019-05-02T05:26:09.679Z,10.50
2019-05-02T05:27:18.942Z,10.51
2019-05-02T05:28:19.999Z,10.53
2019-05-02T05:29:23.363Z,10.54
2019-05-02T05:30:27.771Z,10.55
2019-05-02T05:31:31.037Z,10.56
2019-05-02T05:32:37.483Z,10.57
2019-05-02T05:33:39.678Z,10.57
2019-05-02T05:34:43.883Z,10.59
2019-05-02T05:35:52.457Z,10.60
2019-05-02T05:36:52.426Z,10.62
2019-05-02T05:37:57.348Z,10.62
2019-05-02T05:39:03.058Z,10.62
2019-05-02T05:40:05.299Z,10.62
2019-05-02T05:41:13.204Z,10.63
2019-05-02T05:42:13.899Z,10.63
2019-05-02T05:43:20.493Z,10.64
2019-05-02T05:44:23.280Z,10.65
2019-05-02T05:45:27.852Z,10.65
2019-05-02T05:46:33.437Z,10.66
2019-05-02T05:47:35.249Z,10.66
2019-05-02T05:48:40.835Z,10.66
2019-05-02T05:49:43.890Z,10.64
2019-05-02T05:50:48.045Z,10.65
2019-05-02T05:51:54.289Z,10.64
2019-05-02T05:52:59.319Z,10.64
2019-05-02T05:54:03.175Z,10.63
2019-05-02T05:55:05.214Z,10.62
2019-05-02T05:56:09.491Z,10.61
2019-05-02T05:57:17.437Z,10.61
2019-05-02T05:58:18.784Z,10.61
2019-05-02T05:59:27.289Z,10.61
2019-05-02T06:00:27.792Z,10.62
2019-05-02T06:01:33.951Z,10.63
2019-05-02T06:02:50.909Z,10.65
2019-05-02T06:03:44.606Z,10.66
2019-05-02T06:04:43.655Z,10.67
2019-05-02T06:05:47.890Z,10.69
2019-05-02T06:06:54.047Z,10.71
2019-05-02T06:07:57.510Z,10.74
2019-05-02T06:09:00.686Z,10.75
2019-05-02T06:10:07.806Z,10.76
2019-05-02T06:11:09.221Z,10.76
2019-05-02T06:12:13.540Z,10.77
2019-05-02T06:13:17.839Z,10.77
2019-05-02T06:14:25.021Z,10.78
2019-05-02T06:15:26.416Z,10.77
2019-05-02T06:16:30.655Z,10.76
2019-05-02T06:17:34.987Z,10.77
2019-05-02T06:18:41.722Z,10.78
2019-05-02T06:19:43.510Z,10.79
2019-05-02T06:20:47.810Z,10.79
2019-05-02T06:21:52.122Z,10.79
2019-05-02T06:23:00.107Z,10.78
2019-05-02T06:24:00.670Z,10.76
2019-05-02T06:25:08.752Z,10.75
2019-05-02T06:26:13.600Z,10.73
2019-05-02T06:27:13.375Z,10.72
2019-05-02T06:28:17.656Z,10.73
2019-05-02T06:29:22.021Z,10.74
2019-05-02T06:30:27.089Z,10.74
2019-05-02T06:31:30.576Z,10.75
2019-05-02T06:32:34.817Z,10.76
2019-05-02T06:33:39.074Z,10.78
2019-05-02T06:34:46.520Z,10.81
2019-05-02T06:35:51.914Z,10.84
2019-05-02T06:36:51.868Z,10.86
2019-05-02T06:37:56.157Z,10.89
2019-05-02T06:39:00.400Z,10.91
2019-05-02T06:40:07.982Z,10.93
2019-05-02T06:41:08.963Z,10.93
2019-05-02T06:42:13.256Z,10.93
2019-05-02T06:43:17.443Z,10.92
2019-05-02T06:44:24.074Z,10.91
2019-05-02T06:45:25.865Z,10.91
2019-05-02T06:46:30.229Z,10.92
2019-05-02T06:47:36.029Z,10.93
2019-05-02T06:48:38.735Z,10.93
2019-05-02T06:49:43.103Z,10.91
2019-05-02T06:50:50.267Z,10.88
2019-05-02T06:51:56.126Z,10.84
2019-05-02T06:52:57.924Z,10.81
2019-05-02T06:54:02.174Z,10.78
2019-05-02T06:55:06.423Z,10.78
2019-05-02T06:56:12.628Z,10.77
2019-05-02T06:57:18.906Z,10.76
2019-05-02T06:58:19.176Z,10.76
2019-05-02T06:59:23.461Z,10.76
2019-05-02T07:00:35.408Z,10.76
2019-05-02T07:01:31.967Z,10.76
2019-05-02T07:02:36.297Z,10.77
2019-05-02T07:03:41.385Z,10.79
2019-05-02T07:04:44.782Z,10.80
2019-05-02T07:05:49.380Z,10.82
2019-05-02T07:06:58.787Z,10.84
2019-05-02T07:07:57.579Z,10.86
2019-05-02T07:09:02.307Z,10.89
2019-05-02T07:10:07.516Z,10.91
2019-05-02T07:11:10.412Z,10.91
2019-05-02T07:12:16.494Z,10.93
2019-05-02T07:13:18.843Z,10.94
2019-05-02T07:14:23.878Z,10.97
2019-05-02T07:15:27.511Z,10.98
2019-05-02T07:16:38.508Z,10.99
2019-05-02T07:17:38.293Z,11.00
2019-05-02T07:18:42.026Z,10.99
2019-05-02T07:19:44.506Z,11.00
2019-05-02T07:20:48.750Z,10.99
2019-05-02T07:21:57.945Z,11.00
2019-05-02T07:22:57.266Z,11.02
2019-05-02T07:24:01.547Z,11.04
2019-05-02T07:25:07.012Z,11.06
2019-05-02T07:26:10.063Z,11.08
2019-05-02T07:27:14.348Z,11.09
2019-05-02T07:28:18.495Z,11.12
2019-05-02T07:29:23.154Z,11.14
2019-05-02T07:30:30.128Z,11.15
2019-05-02T07:31:31.520Z,11.17
2019-05-02T07:32:35.814Z,11.17
2019-05-02T07:33:40.114Z,11.18
2019-05-02T07:34:48.252Z,11.17
2019-05-02T07:35:48.601Z,11.18
2019-05-02T07:36:52.928Z,11.18
2019-05-02T07:37:57.284Z,11.19
2019-05-02T07:39:05.261Z,11.18
2019-05-02T07:40:05.741Z,11.19
2019-05-02T07:41:10.012Z,11.19
2019-05-02T07:42:14.274Z,11.19
2019-05-02T07:43:21.377Z,11.21
2019-05-02T07:44:27.099Z,11.21
2019-05-02T07:45:27.103Z,11.22
2019-05-02T07:46:31.524Z,11.23
2019-05-02T07:47:40.119Z,11.24
2019-05-02T07:48:40.080Z,11.26
2019-05-02T07:49:44.335Z,11.26
2019-05-02T07:50:48.673Z,11.26
2019-05-02T07:51:57.472Z,11.25
2019-05-02T07:52:57.128Z,11.25
2019-05-02T07:54:01.366Z,11.26
2019-05-02T07:55:08.319Z,11.26
2019-05-02T07:56:12.439Z,11.23
2019-05-02T07:57:14.065Z,11.24
2019-05-02T07:58:18.269Z,11.26
2019-05-02T07:59:23.496Z,11.27
2019-05-02T08:00:26.805Z,11.28
2019-05-02T08:01:31.040Z,11.29
2019-05-02T08:02:35.439Z,11.30
2019-05-02T08:03:39.762Z,11.31
2019-05-02T08:04:44.939Z,11.32
2019-05-02T08:05:48.254Z,11.32
2019-05-02T08:06:52.583Z,11.32
2019-05-02T08:07:56.816Z,11.32
2019-05-02T08:09:01.594Z,11.32
2019-05-02T08:10:05.378Z,11.32
2019-05-02T08:11:09.634Z,11.31
2019-05-02T08:12:13.849Z,11.32
2019-05-02T08:13:19.456Z,11.34
2019-05-02T08:14:22.348Z,11.36
2019-05-02T08:15:26.588Z,11.37
2019-05-02T08:16:30.761Z,11.39
2019-05-02T08:17:35.090Z,11.40
2019-05-02T08:18:39.325Z,11.42
2019-05-02T08:19:43.554Z,11.43
2019-05-02T08:20:51.117Z,11.44
2019-05-02T08:21:52.105Z,11.46
2019-05-02T08:22:56.408Z,11.48
2019-05-02T08:24:02.399Z,11.49
2019-05-02T08:25:10.459Z,11.50
2019-05-02T08:26:09.169Z,11.53
2019-05-02T08:27:13.486Z,11.54
2019-05-02T08:28:18.024Z,11.55
2019-05-02T08:29:23.524Z,11.54
2019-05-02T08:30:26.433Z,11.54
2019-05-02T08:31:30.630Z,11.54
2019-05-02T08:32:34.807Z,11.55
2019-05-02T08:33:39.139Z,11.56
2019-05-02T08:34:46.291Z,11.57
2019-05-02T08:35:50.646Z,11.58
2019-05-02T08:36:54.024Z,11.58
2019-05-02T08:37:58.202Z,11.59
2019-05-02T08:39:02.574Z,11.59
2019-05-02T08:40:10.688Z,11.62
2019-05-02T08:41:11.038Z,11.65
2019-05-02T08:42:15.316Z,11.68
2019-05-02T08:43:19.538Z,11.72
2019-05-02T08:44:23.807Z,11.74
2019-05-02T08:45:28.085Z,11.76
2019-05-02T08:46:32.341Z,11.78
2019-05-02T08:47:36.561Z,11.80
2019-05-02T08:48:41.952Z,11.82
2019-05-02T08:49:49.423Z,11.83
2019-05-02T08:50:49.370Z,11.83
2019-05-02T08:51:53.603Z,11.85
2019-05-02T08:52:57.920Z,11.86
2019-05-02T08:54:02.148Z,11.89
2019-05-02T08:55:09.676Z,11.92
2019-05-02T08:56:10.645Z,11.94
2019-05-02T08:57:14.904Z,11.94
2019-05-02T08:58:19.249Z,11.94
2019-05-02T08:59:24.496Z,11.90
2019-05-02T09:00:32.055Z,11.88
2019-05-02T09:01:35.310Z,11.89
2019-05-02T09:02:41.594Z,11.89
2019-05-02T09:03:54.812Z,11.91
2019-05-02T09:04:57.331Z,11.93
2019-05-02T09:05:49.174Z,11.95
2019-05-02T09:06:58.850Z,11.98
2019-05-02T09:07:57.717Z,12.00
2019-05-02T09:09:02.000Z,12.00
2019-05-02T09:10:07.824Z,12.01
2019-05-02T09:11:14.203Z,12.03
2019-05-02T09:12:15.269Z,12.04
2019-05-02T09:13:26.451Z,12.05
2019-05-02T09:14:23.288Z,12.07
2019-05-02T09:15:27.559Z,12.09
2019-05-02T09:16:32.809Z,12.10
2019-05-02T09:17:38.734Z,12.09
2019-05-02T09:18:50.448Z,12.08
2019-05-02T09:19:44.746Z,12.06
2019-05-02T09:20:52.551Z,12.06
2019-05-02T09:21:53.224Z,12.04
2019-05-02T09:22:57.503Z,12.04
2019-05-02T09:24:02.528Z,12.04
2019-05-02T09:25:06.057Z,12.04
2019-05-02T09:26:11.909Z,12.05
2019-05-02T09:27:14.581Z,12.06
2019-05-02T09:28:23.999Z,12.06
2019-05-02T09:29:23.238Z,12.05
2019-05-02T09:30:27.452Z,12.05
2019-05-02T09:31:32.049Z,12.05
2019-05-02T09:32:37.258Z,12.05
2019-05-02T09:33:42.382Z,12.04
2019-05-02T09:34:44.583Z,12.03
2019-05-02T09:35:48.798Z,12.02
2019-05-02T09:36:53.195Z,12.02
2019-05-02T09:37:57.437Z,12.02
2019-05-02T09:39:02.673Z,12.01
2019-05-02T09:40:06.846Z,12.01
2019-05-02T09:41:18.800Z,12.02
2019-05-02T09:42:16.350Z,12.03
2019-05-02T09:43:18.764Z,12.06
2019-05-02T09:44:23.044Z,12.08
2019-05-02T09:45:27.693Z,12.08
2019-05-02T09:46:32.497Z,12.09
2019-05-02T09:47:52.853Z,12.12
2019-05-02T09:48:42.501Z,12.14
2019-05-02T09:49:48.994Z,12.17
2019-05-02T09:50:48.889Z,12.18
2019-05-02T09:51:59.327Z,12.20
2019-05-02T09:52:57.427Z,12.24
2019-05-02T09:54:05.238Z,12.27
2019-05-02T09:55:05.973Z,12.30
2019-05-02T09:56:10.215Z,12.34
2019-05-02T09:57:14.505Z,12.37
2019-05-02T09:58:21.285Z,12.39
2019-05-02T09:59:29.906Z,12.42
2019-05-02T10:00:32.132Z,12.45
2019-05-02T10:01:31.795Z,12.47
2019-05-02T10:02:36.029Z,12.50
2019-05-02T10:03:42.227Z,12.54
2019-05-02T10:04:44.570Z,12.58
2019-05-02T10:05:48.967Z,12.62
2019-05-02T10:06:53.268Z,12.64
2019-05-02T10:08:02.385Z,12.65
2019-05-02T10:09:02.778Z,12.64
2019-05-02T10:10:06.743Z,12.65
2019-05-02T10:11:11.727Z,12.65
2019-05-02T10:12:14.787Z,12.65
2019-05-02T10:13:18.898Z,12.67
2019-05-02T10:14:23.330Z,12.68
2019-05-02T10:15:27.604Z,12.69
2019-05-02T10:16:32.103Z,12.70
2019-05-02T10:17:37.443Z,12.70
2019-05-02T10:18:42.928Z,12.69
2019-05-02T10:19:49.099Z,12.69
2019-05-02T10:20:49.072Z,12.69
2019-05-02T10:21:56.197Z,12.69
2019-05-02T10:22:57.741Z,12.70
2019-05-02T10:24:03.811Z,12.70
2019-05-02T10:25:06.206Z,12.71
2019-05-02T10:26:12.919Z,12.73
2019-05-02T10:27:14.915Z,12.73
2019-05-02T10:28:19.183Z,12.73
2019-05-02T10:29:28.433Z,12.72
2019-05-02T10:30:27.732Z,12.74
2019-05-02T10:31:37.313Z,12.76
2019-05-02T10:32:36.457Z,12.76
2019-05-02T10:33:42.038Z,12.80
2019-05-02T10:34:47.679Z,12.84
2019-05-02T10:35:49.412Z,12.86
2019-05-02T10:36:58.763Z,12.89
2019-05-02T10:37:57.978Z,12.89
2019-05-02T10:39:02.328Z,12.91
2019-05-02T10:40:07.759Z,12.91
2019-05-02T10:41:12.028Z,12.91
2019-05-02T10:42:15.172Z,12.94
2019-05-02T10:43:19.492Z,12.95
2019-05-02T10:44:27.202Z,12.96
2019-05-02T10:45:28.055Z,12.95
2019-05-02T10:46:37.409Z,12.95
2019-05-02T10:47:36.674Z,12.94
2019-05-02T10:48:42.094Z,12.93
2019-05-02T10:49:45.249Z,12.96
2019-05-02T10:50:49.616Z,12.98
2019-05-02T10:51:53.929Z,13.00
2019-05-02T10:52:58.255Z,13.01
2019-05-02T10:54:02.530Z,13.01
2019-05-02T10:55:06.796Z,12.97
2019-05-02T10:56:11.776Z,12.95
2019-05-02T10:57:15.434Z,12.93
2019-05-02T10:58:23.952Z,12.91
2019-05-02T10:59:23.967Z,12.91
2019-05-02T11:00:28.221Z,12.90
2019-05-02T11:01:32.497Z,12.92
2019-05-02T11:02:36.804Z,12.95
2019-05-02T11:03:43.745Z,12.98
2019-05-02T11:04:45.436Z,13.00
2019-05-02T11:05:49.658Z,13.02
2019-05-02T11:06:56.607Z,13.02
2019-05-02T11:08:04.590Z,13.01
2019-05-02T11:09:03.862Z,12.99
2019-05-02T11:10:07.045Z,12.98
2019-05-02T11:11:12.691Z,12.97
2019-05-02T11:12:16.462Z,12.96
2019-05-02T11:13:21.714Z,12.95
2019-05-02T11:14:24.169Z,12.92
2019-05-02T11:15:28.449Z,12.91
2019-05-02T11:16:32.844Z,12.89
2019-05-02T11:17:37.066Z,12.89
2019-05-02T11:18:43.056Z,12.88
2019-05-02T11:19:45.675Z,12.88
2019-05-02T11:20:49.919Z,12.88
2019-05-02T11:21:58.798Z,12.88
2019-05-02T11:22:58.504Z,12.88
2019-05-02T11:24:02.904Z,12.90
2019-05-02T11:25:07.189Z,12.94
2019-05-02T11:26:14.506Z,12.97
2019-05-02T11:27:15.709Z,13.00
2019-05-02T11:28:21.901Z,13.02
2019-05-02T11:29:24.364Z,13.04
2019-05-02T11:30:28.628Z,13.04
2019-05-02T11:31:32.931Z,13.03
2019-05-02T11:32:37.318Z,13.04
2019-05-02T11:33:41.903Z,13.03
2019-05-02T11:34:45.950Z,13.03
2019-05-02T11:35:51.524Z,13.04
2019-05-02T11:36:54.523Z,13.04
2019-05-02T11:37:58.905Z,13.05
2019-05-02T11:39:13.910Z,13.03
2019-05-02T11:40:08.121Z,13.04
2019-05-02T11:41:11.978Z,13.05
2019-05-02T11:42:17.698Z,13.08
2019-05-02T11:43:22.109Z,13.11
2019-05-02T11:44:24.581Z,13.15
2019-05-02T11:45:28.891Z,13.17
2019-05-02T11:46:33.332Z,13.17
2019-05-02T11:47:37.532Z,13.17
2019-05-02T11:48:54.713Z,13.15
2019-05-02T11:49:46.884Z,13.11
2019-05-02T11:50:52.329Z,13.06
2019-05-02T11:51:57.051Z,13.03
2019-05-02T11:52:59.063Z,13.00
2019-05-02T11:54:05.123Z,12.98
2019-05-02T11:55:07.671Z,12.94
2019-05-02T11:56:13.488Z,12.91
2019-05-02T11:57:16.235Z,12.87
2019-05-02T11:58:22.836Z,12.83
2019-05-02T11:59:28.094Z,12.80
2019-05-02T12:00:29.109Z,12.76
2019-05-02T12:01:37.256Z,12.73
2019-05-02T12:02:37.678Z,12.72
2019-05-02T12:03:42.367Z,12.71
2019-05-02T12:04:47.225Z,12.71
2019-05-02T12:05:52.426Z,12.71
2019-05-02T12:07:00.992Z,12.71
2019-05-02T12:08:02.592Z,12.71
2019-05-02T12:09:03.532Z,12.70
2019-05-02T12:10:07.732Z,12.70
2019-05-02T12:11:13.958Z,12.71
2019-05-02T12:12:16.271Z,12.71
2019-05-02T12:13:22.545Z,12.71
2019-05-02T12:14:27.474Z,12.70
2019-05-02T12:15:29.178Z,12.70
2019-05-02T12:16:33.440Z,12.70
2019-05-02T12:17:37.752Z,12.70
2019-05-02T12:18:42.001Z,12.70
2019-05-02T12:19:46.361Z,12.72
2019-05-02T12:20:51.972Z,12.73
2019-05-02T12:21:54.936Z,12.75
2019-05-02T12:22:59.207Z,12.76
2019-05-02T12:24:03.506Z,12.76
2019-05-02T12:25:07.713Z,12.76
2019-05-02T12:26:12.439Z,12.74
2019-05-02T12:27:16.265Z,12.71
2019-05-02T12:28:20.488Z,12.67
2019-05-02T12:29:24.791Z,12.66
2019-05-02T12:30:33.397Z,12.64
2019-05-02T12:31:33.305Z,12.63
2019-05-02T12:32:37.661Z,12.62
2019-05-02T12:33:42.666Z,12.62
2019-05-02T12:34:46.176Z,12.62
2019-05-02T12:35:52.309Z,12.64
2019-05-02T12:36:54.664Z,12.64
2019-05-02T12:37:58.824Z,12.63
2019-05-02T12:39:03.247Z,12.63
2019-05-02T12:40:07.586Z,12.63
2019-05-02T12:41:20.293Z,12.62
2019-05-02T12:42:16.442Z,12.60
2019-05-02T12:43:22.727Z,12.60
2019-05-02T12:44:24.657Z,12.61
2019-05-02T12:45:28.962Z,12.62
2019-05-02T12:46:33.204Z,12.63
2019-05-02T12:47:37.566Z,12.63
2019-05-02T12:48:42.298Z,12.62
2019-05-02T12:49:46.236Z,12.63
2019-05-02T12:50:52.594Z,12.65
2019-05-02T12:51:54.727Z,12.67
2019-05-02T12:52:59.057Z,12.70
2019-05-02T12:54:03.342Z,12.73
2019-05-02T12:55:07.728Z,12.76
2019-05-02T12:56:12.043Z,12.79
2019-05-02T12:57:16.300Z,12.82
2019-05-02T12:58:21.847Z,12.83
2019-05-02T12:59:24.830Z,12.86
2019-05-02T13:00:29.159Z,12.89
2019-05-02T13:01:33.527Z,12.90
2019-05-02T13:02:37.842Z,12.88
2019-05-02T13:03:43.598Z,12.85
2019-05-02T13:04:46.406Z,12.83
2019-05-02T13:05:52.131Z,12.82
2019-05-02T13:06:55.031Z,12.80
2019-05-02T13:07:59.379Z,12.79
2019-05-02T13:09:03.648Z,12.75
2019-05-02T13:10:07.916Z,12.73
2019-05-02T13:11:14.166Z,12.69
2019-05-02T13:12:16.466Z,12.65
2019-05-02T13:13:21.804Z,12.64
2019-05-02T13:14:28.023Z,12.65
2019-05-02T13:15:32.938Z,12.67
2019-05-02T13:16:35.686Z,12.71
2019-05-02T13:17:43.893Z,12.76
2019-05-02T13:18:44.218Z,12.79
2019-05-02T13:19:56.207Z,12.80
2019-05-02T13:20:52.935Z,12.81
2019-05-02T13:21:59.501Z,12.80
2019-05-02T13:23:03.307Z,12.79
2019-05-02T13:24:07.533Z,12.76
2019-05-02T13:25:10.481Z,12.73
2019-05-02T13:26:19.898Z,12.70
2019-05-02T13:27:18.504Z,12.68
2019-05-02T13:28:25.615Z,12.66
2019-05-02T13:29:27.148Z,12.64
2019-05-02T13:30:32.778Z,12.63
2019-05-02T13:31:35.769Z,12.63
2019-05-02T13:32:40.045Z,12.62
2019-05-02T13:33:44.231Z,12.61
2019-05-02T13:34:52.961Z,12.61
2019-05-02T13:35:52.689Z,12.59
2019-05-02T13:36:57.994Z,12.57
2019-05-02T13:38:02.766Z,12.56
2019-05-02T13:39:05.655Z,12.55
2019-05-02T13:40:11.821Z,12.55
2019-05-02T13:41:14.205Z,12.53
2019-05-02T13:42:18.434Z,12.52
2019-05-02T13:43:22.765Z,12.51
2019-05-02T13:44:29.041Z,12.50
2019-05-02T13:45:32.403Z,12.48
2019-05-02T13:46:35.703Z,12.46
2019-05-02T13:47:40.031Z,12.43
2019-05-02T13:48:44.328Z,12.40
2019-05-02T13:49:53.810Z,12.37
2019-05-02T13:50:52.801Z,12.33
2019-05-02T13:51:57.120Z,12.31